Portada
METAR-TAF:

METAR-TAF

Aeroports :

Richard I. Bong Airport

Superior, Wisconsin, Estats Units d'Amèrica

latitud: 46-41-23N, longitud: 092-05-41W, altitud: 205 m

Observació

L'informe es va fer fa 13 minuts, a les 18:15 UTC
Vent 11 kt del Oest/Sud-Oest amb ràfegues de 16 kt
Temperatura 29°C
Humitat 52%
Pressió 1005 hPa
Visibilitat: 16.1 km
Cel clar

METAR: KSUW 251815Z AUTO 24011G16KT 10SM CLR 29/18 A2968 RMK AO2 T02930181

Hora: 13:28 (18:28 UTC)


TAF: manca

Observacions i pronòstics meteorològics de més de 4000 aeroports (METAR i TAF).

Les estacions disponibles són els punts grocs i vermells al mapa.

Posi el ratolí al punt desitjat per veure el nom de l'estació.

Feu clic per veure les observacions i els pronòstics meteorològics.

Per canviar el mapa: feu clic els botons verds amb una creu de color negre per apropar; al botó verd amb un guió per allunyar la imatge; o en les fletxes verdes per a mapes adjacents.


METAR-TAF: